sensor_id;sensor_type;location;lat;lon;timestamp;temperature;humidity
68385;DHT22;55336;43.062;25.626;2023-04-28T00:01:09;7.90;99.90
68385;DHT22;55336;43.062;25.626;2023-04-28T00:03:35;7.90;99.90
68385;DHT22;55336;43.062;25.626;2023-04-28T00:06:01;7.90;99.90
68385;DHT22;55336;43.062;25.626;2023-04-28T00:08:28;7.90;99.90
68385;DHT22;55336;43.062;25.626;2023-04-28T00:10:53;7.90;99.90
68385;DHT22;55336;43.062;25.626;2023-04-28T00:13:19;7.90;99.90
68385;DHT22;55336;43.062;25.626;2023-04-28T00:15:45;7.90;99.90
68385;DHT22;55336;43.062;25.626;2023-04-28T00:18:11;7.90;99.90
68385;DHT22;55336;43.062;25.626;2023-04-28T00:20:37;7.80;99.90
68385;DHT22;55336;43.062;25.626;2023-04-28T00:23:03;7.80;99.90
68385;DHT22;55336;43.062;25.626;2023-04-28T00:25:29;7.80;99.90
68385;DHT22;55336;43.062;25.626;2023-04-28T00:27:54;7.80;99.90
68385;DHT22;55336;43.062;25.626;2023-04-28T00:30:20;7.80;99.90
68385;DHT22;55336;43.062;25.626;2023-04-28T00:32:46;7.80;99.90
68385;DHT22;55336;43.062;25.626;2023-04-28T00:35:12;7.80;99.90
68385;DHT22;55336;43.062;25.626;2023-04-28T00:37:38;7.50;99.90
68385;DHT22;55336;43.062;25.626;2023-04-28T00:40:05;7.80;99.90
68385;DHT22;55336;43.062;25.626;2023-04-28T00:42:34;7.80;99.90
68385;DHT22;55336;43.062;25.626;2023-04-28T00:45:00;7.80;99.90
68385;DHT22;55336;43.062;25.626;2023-04-28T00:47:33;7.80;99.90
68385;DHT22;55336;43.062;25.626;2023-04-28T00:50:04;7.80;99.90
68385;DHT22;55336;43.062;25.626;2023-04-28T00:52:36;7.80;99.90
68385;DHT22;55336;43.062;25.626;2023-04-28T00:55:03;7.80;99.90
68385;DHT22;55336;43.062;25.626;2023-04-28T00:57:30;7.80;99.90
68385;DHT22;55336;43.062;25.626;2023-04-28T00:59:56;7.80;99.90
68385;DHT22;55336;43.062;25.626;2023-04-28T01:02:23;7.80;99.90
68385;DHT22;55336;43.062;25.626;2023-04-28T01:04:50;7.80;99.90
68385;DHT22;55336;43.062;25.626;2023-04-28T01:07:17;7.70;99.90
68385;DHT22;55336;43.062;25.626;2023-04-28T01:09:44;7.70;99.90
68385;DHT22;55336;43.062;25.626;2023-04-28T01:12:12;7.70;99.90
68385;DHT22;55336;43.062;25.626;2023-04-28T01:14:38;7.70;99.90
68385;DHT22;55336;43.062;25.626;2023-04-28T01:17:04;7.70;99.90
68385;DHT22;55336;43.062;25.626;2023-04-28T01:19:30;7.70;99.90
68385;DHT22;55336;43.062;25.626;2023-04-28T01:21:56;7.70;99.90
68385;DHT22;55336;43.062;25.626;2023-04-28T01:24:22;7.70;99.90
68385;DHT22;55336;43.062;25.626;2023-04-28T01:26:48;7.80;99.90
68385;DHT22;55336;43.062;25.626;2023-04-28T01:29:15;7.70;99.90
68385;DHT22;55336;43.062;25.626;2023-04-28T01:31:40;7.70;99.90
68385;DHT22;55336;43.062;25.626;2023-04-28T01:34:07;7.30;99.90
68385;DHT22;55336;43.062;25.626;2023-04-28T01:36:33;7.60;99.90
68385;DHT22;55336;43.062;25.626;2023-04-28T01:38:59;7.60;99.90
68385;DHT22;55336;43.062;25.626;2023-04-28T01:41:26;7.50;99.90
68385;DHT22;55336;43.062;25.626;2023-04-28T01:43:52;7.50;99.90
68385;DHT22;55336;43.062;25.626;2023-04-28T01:46:17;7.60;99.90
68385;DHT22;55336;43.062;25.626;2023-04-28T01:48:43;7.50;99.90
68385;DHT22;55336;43.062;25.626;2023-04-28T01:51:09;7.40;99.90
68385;DHT22;55336;43.062;25.626;2023-04-28T01:53:35;7.50;99.90
68385;DHT22;55336;43.062;25.626;2023-04-28T01:56:01;7.50;99.90
68385;DHT22;55336;43.062;25.626;2023-04-28T01:58:28;7.50;99.90
68385;DHT22;55336;43.062;25.626;2023-04-28T02:00:54;7.50;99.90
68385;DHT22;55336;43.062;25.626;2023-04-28T02:03:19;7.50;99.90
68385;DHT22;55336;43.062;25.626;2023-04-28T02:05:46;7.50;99.90
68385;DHT22;55336;43.062;25.626;2023-04-28T02:08:12;7.50;99.90
68385;DHT22;55336;43.062;25.626;2023-04-28T02:10:38;7.50;99.90
68385;DHT22;55336;43.062;25.626;2023-04-28T02:13:04;7.50;99.90
68385;DHT22;55336;43.062;25.626;2023-04-28T02:15:30;7.50;99.90
68385;DHT22;55336;43.062;25.626;2023-04-28T02:17:56;7.50;99.90
68385;DHT22;55336;43.062;25.626;2023-04-28T02:20:22;7.50;99.90
68385;DHT22;55336;43.062;25.626;2023-04-28T02:22:49;7.50;99.90
68385;DHT22;55336;43.062;25.626;2023-04-28T02:25:14;7.40;99.90
68385;DHT22;55336;43.062;25.626;2023-04-28T02:27:40;7.50;99.90
68385;DHT22;55336;43.062;25.626;2023-04-28T02:30:07;7.50;99.90
68385;DHT22;55336;43.062;25.626;2023-04-28T02:32:33;7.50;99.90
68385;DHT22;55336;43.062;25.626;2023-04-28T02:34:59;7.50;99.90
68385;DHT22;55336;43.062;25.626;2023-04-28T02:37:25;7.40;99.90
68385;DHT22;55336;43.062;25.626;2023-04-28T02:39:51;7.40;99.90
68385;DHT22;55336;43.062;25.626;2023-04-28T02:42:16;7.30;99.90
68385;DHT22;55336;43.062;25.626;2023-04-28T02:44:43;7.30;99.90
68385;DHT22;55336;43.062;25.626;2023-04-28T02:47:10;7.30;99.90
68385;DHT22;55336;43.062;25.626;2023-04-28T02:49:36;7.30;99.90
68385;DHT22;55336;43.062;25.626;2023-04-28T02:52:02;7.30;99.90
68385;DHT22;55336;43.062;25.626;2023-04-28T02:54:28;7.30;99.90
68385;DHT22;55336;43.062;25.626;2023-04-28T02:56:54;7.40;99.90
68385;DHT22;55336;43.062;25.626;2023-04-28T02:59:21;7.40;99.90
68385;DHT22;55336;43.062;25.626;2023-04-28T03:01:47;7.40;99.90
68385;DHT22;55336;43.062;25.626;2023-04-28T03:04:13;7.30;99.90
68385;DHT22;55336;43.062;25.626;2023-04-28T03:06:39;7.30;99.90
68385;DHT22;55336;43.062;25.626;2023-04-28T03:09:05;7.30;99.90
68385;DHT22;55336;43.062;25.626;2023-04-28T03:11:31;7.30;99.90
68385;DHT22;55336;43.062;25.626;2023-04-28T03:13:57;7.30;99.90
68385;DHT22;55336;43.062;25.626;2023-04-28T03:16:22;7.30;99.90
68385;DHT22;55336;43.062;25.626;2023-04-28T03:18:48;7.30;99.90
68385;DHT22;55336;43.062;25.626;2023-04-28T03:21:14;7.20;99.90
68385;DHT22;55336;43.062;25.626;2023-04-28T03:23:40;7.20;99.90
68385;DHT22;55336;43.062;25.626;2023-04-28T03:26:06;7.20;99.90
68385;DHT22;55336;43.062;25.626;2023-04-28T03:28:32;7.10;99.90
68385;DHT22;55336;43.062;25.626;2023-04-28T03:30:58;7.10;99.90
68385;DHT22;55336;43.062;25.626;2023-04-28T03:33:26;7.10;99.90
68385;DHT22;55336;43.062;25.626;2023-04-28T03:35:52;7.00;99.90
68385;DHT22;55336;43.062;25.626;2023-04-28T03:38:19;6.90;99.90
68385;DHT22;55336;43.062;25.626;2023-04-28T03:40:44;6.90;99.90
68385;DHT22;55336;43.062;25.626;2023-04-28T03:43:10;7.00;99.90
68385;DHT22;55336;43.062;25.626;2023-04-28T03:45:36;7.10;99.90
68385;DHT22;55336;43.062;25.626;2023-04-28T03:48:02;7.10;99.90
68385;DHT22;55336;43.062;25.626;2023-04-28T03:50:28;7.10;99.90
68385;DHT22;55336;43.062;25.626;2023-04-28T03:52:55;7.20;99.90
68385;DHT22;55336;43.062;25.626;2023-04-28T03:55:21;7.30;99.90
68385;DHT22;55336;43.062;25.626;2023-04-28T03:57:47;7.30;99.90
68385;DHT22;55336;43.062;25.626;2023-04-28T04:00:13;7.40;99.90
68385;DHT22;55336;43.062;25.626;2023-04-28T04:02:39;7.50;99.90
68385;DHT22;55336;43.062;25.626;2023-04-28T04:05:05;7.50;99.90
68385;DHT22;55336;43.062;25.626;2023-04-28T04:07:31;7.50;99.90
68385;DHT22;55336;43.062;25.626;2023-04-28T04:09:56;7.50;99.90
68385;DHT22;55336;43.062;25.626;2023-04-28T04:12:22;7.60;99.90
68385;DHT22;55336;43.062;25.626;2023-04-28T04:14:48;7.60;99.90
68385;DHT22;55336;43.062;25.626;2023-04-28T04:17:14;7.70;99.90
68385;DHT22;55336;43.062;25.626;2023-04-28T04:19:40;7.70;99.90
68385;DHT22;55336;43.062;25.626;2023-04-28T04:22:07;7.70;99.90
68385;DHT22;55336;43.062;25.626;2023-04-28T04:24:33;7.70;99.90
68385;DHT22;55336;43.062;25.626;2023-04-28T04:26:59;7.80;99.90
68385;DHT22;55336;43.062;25.626;2023-04-28T04:29:24;7.70;99.90
68385;DHT22;55336;43.062;25.626;2023-04-28T04:31:50;7.80;99.90
68385;DHT22;55336;43.062;25.626;2023-04-28T04:34:16;7.90;99.90
68385;DHT22;55336;43.062;25.626;2023-04-28T04:36:42;7.90;99.90
68385;DHT22;55336;43.062;25.626;2023-04-28T04:39:08;8.00;99.90
68385;DHT22;55336;43.062;25.626;2023-04-28T04:41:34;8.10;99.90
68385;DHT22;55336;43.062;25.626;2023-04-28T04:44:00;8.10;99.90
68385;DHT22;55336;43.062;25.626;2023-04-28T04:46:26;8.10;99.90
68385;DHT22;55336;43.062;25.626;2023-04-28T04:48:52;8.10;99.90
68385;DHT22;55336;43.062;25.626;2023-04-28T04:51:18;8.10;99.90
68385;DHT22;55336;43.062;25.626;2023-04-28T04:53:44;8.10;99.90
68385;DHT22;55336;43.062;25.626;2023-04-28T04:56:10;8.20;99.90
68385;DHT22;55336;43.062;25.626;2023-04-28T04:58:35;8.20;99.90
68385;DHT22;55336;43.062;25.626;2023-04-28T05:01:02;8.20;99.90
68385;DHT22;55336;43.062;25.626;2023-04-28T05:03:28;8.20;99.90
68385;DHT22;55336;43.062;25.626;2023-04-28T05:05:54;8.30;99.90
68385;DHT22;55336;43.062;25.626;2023-04-28T05:08:20;8.30;99.90
68385;DHT22;55336;43.062;25.626;2023-04-28T05:10:46;8.40;99.90
68385;DHT22;55336;43.062;25.626;2023-04-28T05:13:12;8.50;99.90
68385;DHT22;55336;43.062;25.626;2023-04-28T05:15:38;8.60;99.90
68385;DHT22;55336;43.062;25.626;2023-04-28T05:18:04;8.60;99.90
68385;DHT22;55336;43.062;25.626;2023-04-28T05:20:35;8.80;99.90
68385;DHT22;55336;43.062;25.626;2023-04-28T05:23:00;8.90;99.90
68385;DHT22;55336;43.062;25.626;2023-04-28T05:25:27;9.00;99.90
68385;DHT22;55336;43.062;25.626;2023-04-28T05:27:53;9.10;99.90
68385;DHT22;55336;43.062;25.626;2023-04-28T05:30:19;9.00;99.90
68385;DHT22;55336;43.062;25.626;2023-04-28T05:32:45;9.00;99.90
68385;DHT22;55336;43.062;25.626;2023-04-28T05:35:11;9.20;99.90
68385;DHT22;55336;43.062;25.626;2023-04-28T05:37:38;9.40;99.90
68385;DHT22;55336;43.062;25.626;2023-04-28T05:40:04;9.70;99.90
68385;DHT22;55336;43.062;25.626;2023-04-28T05:42:30;10.00;99.90
68385;DHT22;55336;43.062;25.626;2023-04-28T05:44:56;10.20;99.90
68385;DHT22;55336;43.062;25.626;2023-04-28T05:47:22;10.50;99.90
68385;DHT22;55336;43.062;25.626;2023-04-28T05:49:47;10.60;99.90
68385;DHT22;55336;43.062;25.626;2023-04-28T05:52:13;10.60;99.90
68385;DHT22;55336;43.062;25.626;2023-04-28T05:54:39;10.80;99.90
68385;DHT22;55336;43.062;25.626;2023-04-28T05:57:05;10.50;99.90
68385;DHT22;55336;43.062;25.626;2023-04-28T05:59:30;10.70;99.90
68385;DHT22;55336;43.062;25.626;2023-04-28T06:01:56;11.00;99.90
68385;DHT22;55336;43.062;25.626;2023-04-28T06:04:22;11.20;99.90
68385;DHT22;55336;43.062;25.626;2023-04-28T06:06:48;11.50;99.90
68385;DHT22;55336;43.062;25.626;2023-04-28T06:09:13;11.70;99.90
68385;DHT22;55336;43.062;25.626;2023-04-28T06:11:39;11.90;99.90
68385;DHT22;55336;43.062;25.626;2023-04-28T06:14:05;12.10;99.90
68385;DHT22;55336;43.062;25.626;2023-04-28T06:16:30;12.10;99.90
68385;DHT22;55336;43.062;25.626;2023-04-28T06:18:56;12.10;99.90
68385;DHT22;55336;43.062;25.626;2023-04-28T06:21:22;12.20;99.90
68385;DHT22;55336;43.062;25.626;2023-04-28T06:23:49;12.90;99.90
68385;DHT22;55336;43.062;25.626;2023-04-28T06:26:15;13.20;99.90
68385;DHT22;55336;43.062;25.626;2023-04-28T06:28:40;13.40;99.90
68385;DHT22;55336;43.062;25.626;2023-04-28T06:31:06;12.90;99.90
68385;DHT22;55336;43.062;25.626;2023-04-28T06:33:32;14.00;99.90
68385;DHT22;55336;43.062;25.626;2023-04-28T06:35:57;14.70;99.90
68385;DHT22;55336;43.062;25.626;2023-04-28T06:38:23;14.30;96.70
68385;DHT22;55336;43.062;25.626;2023-04-28T06:40:48;14.00;99.90
68385;DHT22;55336;43.062;25.626;2023-04-28T06:43:14;14.50;99.90
68385;DHT22;55336;43.062;25.626;2023-04-28T06:45:40;14.20;97.40
68385;DHT22;55336;43.062;25.626;2023-04-28T06:48:06;14.60;99.90
68385;DHT22;55336;43.062;25.626;2023-04-28T06:50:32;15.20;99.90
68385;DHT22;55336;43.062;25.626;2023-04-28T06:52:58;14.80;99.90
68385;DHT22;55336;43.062;25.626;2023-04-28T06:55:23;14.60;94.20
68385;DHT22;55336;43.062;25.626;2023-04-28T06:57:49;14.30;74.40
68385;DHT22;55336;43.062;25.626;2023-04-28T07:00:15;14.90;84.80
68385;DHT22;55336;43.062;25.626;2023-04-28T07:02:41;13.90;80.90
68385;DHT22;55336;43.062;25.626;2023-04-28T07:05:06;14.30;82.50
68385;DHT22;55336;43.062;25.626;2023-04-28T07:07:33;14.50;75.20
68385;DHT22;55336;43.062;25.626;2023-04-28T07:09:58;14.30;72.30
68385;DHT22;55336;43.062;25.626;2023-04-28T07:12:26;14.90;77.70
68385;DHT22;55336;43.062;25.626;2023-04-28T07:14:52;14.80;74.10
68385;DHT22;55336;43.062;25.626;2023-04-28T07:17:17;14.70;76.40
68385;DHT22;55336;43.062;25.626;2023-04-28T07:19:43;15.60;70.40
68385;DHT22;55336;43.062;25.626;2023-04-28T07:22:09;14.80;62.00
68385;DHT22;55336;43.062;25.626;2023-04-28T07:24:34;15.20;77.90
68385;DHT22;55336;43.062;25.626;2023-04-28T07:27:00;14.80;70.80
68385;DHT22;55336;43.062;25.626;2023-04-28T07:29:26;14.30;67.60
68385;DHT22;55336;43.062;25.626;2023-04-28T07:31:58;14.10;73.80
68385;DHT22;55336;43.062;25.626;2023-04-28T07:34:24;14.40;56.90
68385;DHT22;55336;43.062;25.626;2023-04-28T07:36:50;14.80;59.00
68385;DHT22;55336;43.062;25.626;2023-04-28T07:39:15;14.90;55.00
68385;DHT22;55336;43.062;25.626;2023-04-28T07:41:41;15.80;51.90
68385;DHT22;55336;43.062;25.626;2023-04-28T07:44:06;15.90;61.70
68385;DHT22;55336;43.062;25.626;2023-04-28T07:46:32;15.80;61.80
68385;DHT22;55336;43.062;25.626;2023-04-28T07:48:58;15.90;55.00
68385;DHT22;55336;43.062;25.626;2023-04-28T07:51:24;15.50;58.30
68385;DHT22;55336;43.062;25.626;2023-04-28T07:53:49;15.40;56.20
68385;DHT22;55336;43.062;25.626;2023-04-28T07:56:15;15.20;54.60
68385;DHT22;55336;43.062;25.626;2023-04-28T07:58:41;15.70;56.60
68385;DHT22;55336;43.062;25.626;2023-04-28T08:01:07;15.90;51.50
68385;DHT22;55336;43.062;25.626;2023-04-28T08:03:32;15.30;55.90
68385;DHT22;55336;43.062;25.626;2023-04-28T08:05:59;15.30;54.10
68385;DHT22;55336;43.062;25.626;2023-04-28T08:08:25;15.80;52.80
68385;DHT22;55336;43.062;25.626;2023-04-28T08:10:51;15.60;50.10
68385;DHT22;55336;43.062;25.626;2023-04-28T08:13:17;15.30;49.80
68385;DHT22;55336;43.062;25.626;2023-04-28T08:15:43;15.00;52.60
68385;DHT22;55336;43.062;25.626;2023-04-28T08:18:08;14.90;52.10
68385;DHT22;55336;43.062;25.626;2023-04-28T08:20:34;13.50;53.80
68385;DHT22;55336;43.062;25.626;2023-04-28T08:22:59;14.60;53.90
68385;DHT22;55336;43.062;25.626;2023-04-28T08:25:25;16.50;51.20
68385;DHT22;55336;43.062;25.626;2023-04-28T08:27:51;17.20;46.50
68385;DHT22;55336;43.062;25.626;2023-04-28T08:30:17;17.20;46.30
68385;DHT22;55336;43.062;25.626;2023-04-28T08:32:43;17.00;45.60
68385;DHT22;55336;43.062;25.626;2023-04-28T08:35:09;17.00;48.80
68385;DHT22;55336;43.062;25.626;2023-04-28T08:37:34;17.70;44.10
68385;DHT22;55336;43.062;25.626;2023-04-28T08:40:00;18.50;41.80
68385;DHT22;55336;43.062;25.626;2023-04-28T08:42:30;19.40;39.80
68385;DHT22;55336;43.062;25.626;2023-04-28T08:44:56;19.50;40.30
68385;DHT22;55336;43.062;25.626;2023-04-28T08:47:34;20.10;38.90
68385;DHT22;55336;43.062;25.626;2023-04-28T08:50:04;19.50;39.90
68385;DHT22;55336;43.062;25.626;2023-04-28T08:52:30;19.40;40.20
68385;DHT22;55336;43.062;25.626;2023-04-28T08:54:59;20.10;41.30
68385;DHT22;55336;43.062;25.626;2023-04-28T08:57:26;20.30;40.60
68385;DHT22;55336;43.062;25.626;2023-04-28T08:59:52;16.90;43.20
68385;DHT22;55336;43.062;25.626;2023-04-28T09:02:18;17.20;47.50
68385;DHT22;55336;43.062;25.626;2023-04-28T09:04:45;18.00;44.10
68385;DHT22;55336;43.062;25.626;2023-04-28T09:07:11;16.90;44.20
68385;DHT22;55336;43.062;25.626;2023-04-28T09:09:37;16.40;47.00
68385;DHT22;55336;43.062;25.626;2023-04-28T09:12:03;16.50;46.60
68385;DHT22;55336;43.062;25.626;2023-04-28T09:14:30;15.80;47.20
68385;DHT22;55336;43.062;25.626;2023-04-28T09:16:55;15.20;49.10
68385;DHT22;55336;43.062;25.626;2023-04-28T09:19:21;14.80;52.10
68385;DHT22;55336;43.062;25.626;2023-04-28T09:21:48;14.80;53.10
68385;DHT22;55336;43.062;25.626;2023-04-28T09:24:30;15.40;52.60
68385;DHT22;55336;43.062;25.626;2023-04-28T09:26:56;15.00;50.30
68385;DHT22;55336;43.062;25.626;2023-04-28T09:29:22;15.60;51.30
68385;DHT22;55336;43.062;25.626;2023-04-28T09:31:48;15.80;49.50
68385;DHT22;55336;43.062;25.626;2023-04-28T09:34:13;17.00;44.80
68385;DHT22;55336;43.062;25.626;2023-04-28T09:36:39;16.70;44.60
68385;DHT22;55336;43.062;25.626;2023-04-28T09:39:06;17.10;46.30
68385;DHT22;55336;43.062;25.626;2023-04-28T09:41:41;18.10;44.10
68385;DHT22;55336;43.062;25.626;2023-04-28T09:44:11;19.60;40.80
68385;DHT22;55336;43.062;25.626;2023-04-28T09:46:37;19.50;41.80
68385;DHT22;55336;43.062;25.626;2023-04-28T09:49:03;18.60;42.90
68385;DHT22;55336;43.062;25.626;2023-04-28T09:51:31;18.30;42.60
68385;DHT22;55336;43.062;25.626;2023-04-28T09:53:58;17.70;42.00
68385;DHT22;55336;43.062;25.626;2023-04-28T09:56:26;17.50;44.40
68385;DHT22;55336;43.062;25.626;2023-04-28T09:58:52;17.80;43.00
68385;DHT22;55336;43.062;25.626;2023-04-28T10:01:18;18.10;42.10
68385;DHT22;55336;43.062;25.626;2023-04-28T10:03:44;17.30;43.60
68385;DHT22;55336;43.062;25.626;2023-04-28T10:06:10;18.10;42.70
68385;DHT22;55336;43.062;25.626;2023-04-28T10:08:39;18.20;41.10
68385;DHT22;55336;43.062;25.626;2023-04-28T10:11:04;16.80;47.00
68385;DHT22;55336;43.062;25.626;2023-04-28T10:13:31;16.40;47.30
68385;DHT22;55336;43.062;25.626;2023-04-28T10:15:58;18.40;43.50
68385;DHT22;55336;43.062;25.626;2023-04-28T10:18:24;18.80;40.90
68385;DHT22;55336;43.062;25.626;2023-04-28T10:20:56;18.70;42.20
68385;DHT22;55336;43.062;25.626;2023-04-28T10:23:32;19.40;38.50
68385;DHT22;55336;43.062;25.626;2023-04-28T10:25:59;20.20;37.40
68385;DHT22;55336;43.062;25.626;2023-04-28T10:28:32;20.90;37.40
68385;DHT22;55336;43.062;25.626;2023-04-28T10:31:08;20.80;35.60
68385;DHT22;55336;43.062;25.626;2023-04-28T10:33:33;20.30;37.00
68385;DHT22;55336;43.062;25.626;2023-04-28T10:35:59;20.20;36.50
68385;DHT22;55336;43.062;25.626;2023-04-28T10:38:25;19.30;40.00
68385;DHT22;55336;43.062;25.626;2023-04-28T10:40:51;18.70;38.90
68385;DHT22;55336;43.062;25.626;2023-04-28T10:56:07;20.60;36.30
68385;DHT22;55336;43.062;25.626;2023-04-28T10:58:33;20.30;38.30
68385;DHT22;55336;43.062;25.626;2023-04-28T11:06:19;21.30;33.70
68385;DHT22;55336;43.062;25.626;2023-04-28T11:08:46;21.10;32.70
68385;DHT22;55336;43.062;25.626;2023-04-28T11:11:12;18.90;36.70
68385;DHT22;55336;43.062;25.626;2023-04-28T11:13:39;18.60;38.70
68385;DHT22;55336;43.062;25.626;2023-04-28T11:16:05;17.90;38.90
68385;DHT22;55336;43.062;25.626;2023-04-28T11:21:18;16.60;42.90
68385;DHT22;55336;43.062;25.626;2023-04-28T11:23:45;16.60;43.60
68385;DHT22;55336;43.062;25.626;2023-04-28T11:26:10;16.40;45.70
68385;DHT22;55336;43.062;25.626;2023-04-28T11:28:41;18.60;37.90
68385;DHT22;55336;43.062;25.626;2023-04-28T11:31:14;19.40;39.10
68385;DHT22;55336;43.062;25.626;2023-04-28T11:33:49;20.10;36.70
68385;DHT22;55336;43.062;25.626;2023-04-28T11:36:25;20.40;35.00
68385;DHT22;55336;43.062;25.626;2023-04-28T11:38:52;19.70;36.20
68385;DHT22;55336;43.062;25.626;2023-04-28T11:41:18;18.20;40.90
68385;DHT22;55336;43.062;25.626;2023-04-28T11:43:44;18.10;42.20
68385;DHT22;55336;43.062;25.626;2023-04-28T11:46:14;17.60;42.10
68385;DHT22;55336;43.062;25.626;2023-04-28T11:48:40;17.50;42.30
68385;DHT22;55336;43.062;25.626;2023-04-28T11:51:06;17.50;42.10
68385;DHT22;55336;43.062;25.626;2023-04-28T11:54:05;17.50;42.20
68385;DHT22;55336;43.062;25.626;2023-04-28T11:56:23;17.30;43.20
68385;DHT22;55336;43.062;25.626;2023-04-28T11:59:07;16.90;43.70
68385;DHT22;55336;43.062;25.626;2023-04-28T12:01:54;16.90;46.10
68385;DHT22;55336;43.062;25.626;2023-04-28T12:04:52;16.80;44.10
68385;DHT22;55336;43.062;25.626;2023-04-28T12:07:12;16.30;45.40
68385;DHT22;55336;43.062;25.626;2023-04-28T12:09:45;16.30;45.60
68385;DHT22;55336;43.062;25.626;2023-04-28T12:12:12;16.20;45.60
68385;DHT22;55336;43.062;25.626;2023-04-28T12:14:54;16.00;46.50
68385;DHT22;55336;43.062;25.626;2023-04-28T12:17:27;15.60;46.80
68385;DHT22;55336;43.062;25.626;2023-04-28T12:19:53;16.40;45.50
68385;DHT22;55336;43.062;25.626;2023-04-28T12:22:19;17.50;44.00
68385;DHT22;55336;43.062;25.626;2023-04-28T12:24:45;17.80;42.70
68385;DHT22;55336;43.062;25.626;2023-04-28T12:27:18;17.70;43.20
68385;DHT22;55336;43.062;25.626;2023-04-28T12:29:46;17.70;42.80
68385;DHT22;55336;43.062;25.626;2023-04-28T12:32:12;18.40;41.70
68385;DHT22;55336;43.062;25.626;2023-04-28T12:34:38;18.20;41.20
68385;DHT22;55336;43.062;25.626;2023-04-28T12:37:04;17.90;42.70
68385;DHT22;55336;43.062;25.626;2023-04-28T12:39:31;18.80;40.70
68385;DHT22;55336;43.062;25.626;2023-04-28T12:41:57;19.50;40.40
68385;DHT22;55336;43.062;25.626;2023-04-28T12:44:32;19.40;38.50
68385;DHT22;55336;43.062;25.626;2023-04-28T12:47:02;20.60;37.90
68385;DHT22;55336;43.062;25.626;2023-04-28T12:49:28;19.10;39.10
68385;DHT22;55336;43.062;25.626;2023-04-28T12:51:53;19.40;38.30
68385;DHT22;55336;43.062;25.626;2023-04-28T12:54:19;19.90;38.40
68385;DHT22;55336;43.062;25.626;2023-04-28T12:56:45;20.60;38.70
68385;DHT22;55336;43.062;25.626;2023-04-28T12:59:10;19.50;37.10
68385;DHT22;55336;43.062;25.626;2023-04-28T13:01:36;20.10;38.80
68385;DHT22;55336;43.062;25.626;2023-04-28T13:04:03;20.70;35.10
68385;DHT22;55336;43.062;25.626;2023-04-28T13:06:29;21.10;35.80
68385;DHT22;55336;43.062;25.626;2023-04-28T13:08:55;21.70;35.50
68385;DHT22;55336;43.062;25.626;2023-04-28T13:11:21;21.60;34.90
68385;DHT22;55336;43.062;25.626;2023-04-28T13:13:49;21.40;32.90
68385;DHT22;55336;43.062;25.626;2023-04-28T13:16:15;20.40;36.30
68385;DHT22;55336;43.062;25.626;2023-04-28T13:18:41;19.80;38.40
68385;DHT22;55336;43.062;25.626;2023-04-28T13:21:07;19.80;37.00
68385;DHT22;55336;43.062;25.626;2023-04-28T13:23:33;20.90;34.10
68385;DHT22;55336;43.062;25.626;2023-04-28T13:25:59;21.90;34.60
68385;DHT22;55336;43.062;25.626;2023-04-28T13:28:28;21.90;33.00
68385;DHT22;55336;43.062;25.626;2023-04-28T13:30:55;22.20;31.70
68385;DHT22;55336;43.062;25.626;2023-04-28T13:33:23;22.00;34.30
68385;DHT22;55336;43.062;25.626;2023-04-28T13:35:58;21.30;34.80
68385;DHT22;55336;43.062;25.626;2023-04-28T13:38:24;20.30;38.00
68385;DHT22;55336;43.062;25.626;2023-04-28T13:40:51;19.70;38.30
68385;DHT22;55336;43.062;25.626;2023-04-28T13:43:16;19.00;39.30
68385;DHT22;55336;43.062;25.626;2023-04-28T13:45:42;19.70;40.00
68385;DHT22;55336;43.062;25.626;2023-04-28T13:48:08;20.10;37.90
68385;DHT22;55336;43.062;25.626;2023-04-28T13:50:34;19.10;39.40
68385;DHT22;55336;43.062;25.626;2023-04-28T13:53:00;18.50;40.70
68385;DHT22;55336;43.062;25.626;2023-04-28T13:55:26;18.40;40.90
68385;DHT22;55336;43.062;25.626;2023-04-28T13:57:55;18.50;41.20
68385;DHT22;55336;43.062;25.626;2023-04-28T14:00:21;18.70;41.10
68385;DHT22;55336;43.062;25.626;2023-04-28T14:02:49;18.20;41.80
68385;DHT22;55336;43.062;25.626;2023-04-28T14:05:16;18.80;42.40
68385;DHT22;55336;43.062;25.626;2023-04-28T14:07:42;19.10;39.90
68385;DHT22;55336;43.062;25.626;2023-04-28T14:10:08;19.10;39.30
68385;DHT22;55336;43.062;25.626;2023-04-28T14:12:41;18.30;41.30
68385;DHT22;55336;43.062;25.626;2023-04-28T14:15:07;17.90;41.50
68385;DHT22;55336;43.062;25.626;2023-04-28T14:17:33;17.60;42.60
68385;DHT22;55336;43.062;25.626;2023-04-28T14:20:00;17.90;42.90
68385;DHT22;55336;43.062;25.626;2023-04-28T14:22:26;19.00;40.10
68385;DHT22;55336;43.062;25.626;2023-04-28T14:24:52;19.90;37.90
68385;DHT22;55336;43.062;25.626;2023-04-28T14:27:18;19.90;39.90
68385;DHT22;55336;43.062;25.626;2023-04-28T14:29:44;19.90;38.50
68385;DHT22;55336;43.062;25.626;2023-04-28T14:32:15;19.30;38.70
68385;DHT22;55336;43.062;25.626;2023-04-28T14:34:41;19.10;40.50
68385;DHT22;55336;43.062;25.626;2023-04-28T14:37:09;18.80;40.50
68385;DHT22;55336;43.062;25.626;2023-04-28T14:39:35;18.30;42.90
68385;DHT22;55336;43.062;25.626;2023-04-28T14:42:01;19.10;39.90
68385;DHT22;55336;43.062;25.626;2023-04-28T14:44:28;19.30;39.80
68385;DHT22;55336;43.062;25.626;2023-04-28T14:46:54;19.60;37.80
68385;DHT22;55336;43.062;25.626;2023-04-28T14:49:20;18.20;40.50
68385;DHT22;55336;43.062;25.626;2023-04-28T14:51:47;17.70;42.90
68385;DHT22;55336;43.062;25.626;2023-04-28T14:54:13;17.50;43.10
68385;DHT22;55336;43.062;25.626;2023-04-28T14:56:39;17.10;43.30
68385;DHT22;55336;43.062;25.626;2023-04-28T14:59:05;16.90;44.30
68385;DHT22;55336;43.062;25.626;2023-04-28T15:01:32;16.90;45.60
68385;DHT22;55336;43.062;25.626;2023-04-28T15:03:58;16.80;44.00
68385;DHT22;55336;43.062;25.626;2023-04-28T15:06:24;16.70;44.40
68385;DHT22;55336;43.062;25.626;2023-04-28T15:08:50;16.60;46.20
68385;DHT22;55336;43.062;25.626;2023-04-28T15:11:15;16.80;47.30
68385;DHT22;55336;43.062;25.626;2023-04-28T15:13:41;17.20;48.10
68385;DHT22;55336;43.062;25.626;2023-04-28T15:16:07;17.90;42.40
68385;DHT22;55336;43.062;25.626;2023-04-28T15:18:34;18.00;42.10
68385;DHT22;55336;43.062;25.626;2023-04-28T15:21:00;17.90;42.40
68385;DHT22;55336;43.062;25.626;2023-04-28T15:23:26;18.20;42.80
68385;DHT22;55336;43.062;25.626;2023-04-28T15:25:52;18.10;41.30
68385;DHT22;55336;43.062;25.626;2023-04-28T15:28:18;17.80;43.00
68385;DHT22;55336;43.062;25.626;2023-04-28T15:30:44;17.40;42.90
68385;DHT22;55336;43.062;25.626;2023-04-28T15:33:10;17.60;43.50
68385;DHT22;55336;43.062;25.626;2023-04-28T15:35:41;17.20;44.10
68385;DHT22;55336;43.062;25.626;2023-04-28T15:38:08;17.10;44.30
68385;DHT22;55336;43.062;25.626;2023-04-28T15:40:37;16.80;45.30